sensor_id;sensor_type;location;lat;lon;timestamp;temperature;humidity
57390;DHT22;43217;52.694;6.214;2023-05-25T00:02:11;10.50;99.90
57390;DHT22;43217;52.694;6.214;2023-05-25T00:04:40;10.50;99.90
57390;DHT22;43217;52.694;6.214;2023-05-25T00:07:06;10.50;99.90
57390;DHT22;43217;52.694;6.214;2023-05-25T00:09:32;10.40;99.90
57390;DHT22;43217;52.694;6.214;2023-05-25T00:11:57;10.40;99.90
57390;DHT22;43217;52.694;6.214;2023-05-25T00:14:24;10.40;99.90
57390;DHT22;43217;52.694;6.214;2023-05-25T00:16:50;10.40;99.90
57390;DHT22;43217;52.694;6.214;2023-05-25T00:19:16;10.40;99.90
57390;DHT22;43217;52.694;6.214;2023-05-25T00:21:43;10.40;99.90
57390;DHT22;43217;52.694;6.214;2023-05-25T00:24:12;10.40;99.90
57390;DHT22;43217;52.694;6.214;2023-05-25T00:26:38;10.30;99.90
57390;DHT22;43217;52.694;6.214;2023-05-25T00:29:05;10.30;99.90
57390;DHT22;43217;52.694;6.214;2023-05-25T00:31:31;10.30;99.90
57390;DHT22;43217;52.694;6.214;2023-05-25T00:33:58;10.30;99.90
57390;DHT22;43217;52.694;6.214;2023-05-25T00:36:24;10.30;99.90
57390;DHT22;43217;52.694;6.214;2023-05-25T00:38:50;10.30;99.90
57390;DHT22;43217;52.694;6.214;2023-05-25T00:41:19;10.20;99.90
57390;DHT22;43217;52.694;6.214;2023-05-25T00:43:45;10.30;99.90
57390;DHT22;43217;52.694;6.214;2023-05-25T00:46:13;10.20;99.90
57390;DHT22;43217;52.694;6.214;2023-05-25T00:48:40;10.20;99.90
57390;DHT22;43217;52.694;6.214;2023-05-25T00:51:06;10.20;99.90
57390;DHT22;43217;52.694;6.214;2023-05-25T00:53:34;10.20;99.90
57390;DHT22;43217;52.694;6.214;2023-05-25T00:56:13;10.10;99.90
57390;DHT22;43217;52.694;6.214;2023-05-25T00:58:39;10.10;99.90
57390;DHT22;43217;52.694;6.214;2023-05-25T01:01:06;10.00;99.90
57390;DHT22;43217;52.694;6.214;2023-05-25T01:03:37;9.90;99.90
57390;DHT22;43217;52.694;6.214;2023-05-25T01:06:06;9.90;99.90
57390;DHT22;43217;52.694;6.214;2023-05-25T01:08:34;9.90;99.90
57390;DHT22;43217;52.694;6.214;2023-05-25T01:11:02;9.90;99.90
57390;DHT22;43217;52.694;6.214;2023-05-25T01:13:29;9.90;99.90
57390;DHT22;43217;52.694;6.214;2023-05-25T01:15:57;9.90;99.90
57390;DHT22;43217;52.694;6.214;2023-05-25T01:18:22;9.90;99.90
57390;DHT22;43217;52.694;6.214;2023-05-25T01:23:25;9.80;99.90
57390;DHT22;43217;52.694;6.214;2023-05-25T01:25:53;9.80;99.90
57390;DHT22;43217;52.694;6.214;2023-05-25T01:28:24;9.80;99.90
57390;DHT22;43217;52.694;6.214;2023-05-25T01:30:55;9.80;99.90
57390;DHT22;43217;52.694;6.214;2023-05-25T01:33:21;9.70;99.90
57390;DHT22;43217;52.694;6.214;2023-05-25T01:35:48;9.70;99.90
57390;DHT22;43217;52.694;6.214;2023-05-25T01:38:15;9.60;99.90
57390;DHT22;43217;52.694;6.214;2023-05-25T01:40:42;9.70;99.90
57390;DHT22;43217;52.694;6.214;2023-05-25T01:43:07;9.60;99.90
57390;DHT22;43217;52.694;6.214;2023-05-25T01:45:34;9.60;99.90
57390;DHT22;43217;52.694;6.214;2023-05-25T01:48:27;9.50;99.90
57390;DHT22;43217;52.694;6.214;2023-05-25T01:51:06;9.50;99.90
57390;DHT22;43217;52.694;6.214;2023-05-25T01:53:39;9.50;99.90
57390;DHT22;43217;52.694;6.214;2023-05-25T01:56:07;9.40;99.90
57390;DHT22;43217;52.694;6.214;2023-05-25T01:58:44;9.50;99.90
57390;DHT22;43217;52.694;6.214;2023-05-25T02:01:13;9.50;99.90
57390;DHT22;43217;52.694;6.214;2023-05-25T02:03:43;9.50;99.90
57390;DHT22;43217;52.694;6.214;2023-05-25T02:06:09;9.40;99.90
57390;DHT22;43217;52.694;6.214;2023-05-25T02:08:35;9.40;99.90
57390;DHT22;43217;52.694;6.214;2023-05-25T02:11:01;9.40;99.90
57390;DHT22;43217;52.694;6.214;2023-05-25T02:13:27;9.40;99.90
57390;DHT22;43217;52.694;6.214;2023-05-25T02:15:53;9.50;99.90
57390;DHT22;43217;52.694;6.214;2023-05-25T02:18:18;9.50;99.90
57390;DHT22;43217;52.694;6.214;2023-05-25T02:20:44;9.50;99.90
57390;DHT22;43217;52.694;6.214;2023-05-25T02:23:10;9.50;99.90
57390;DHT22;43217;52.694;6.214;2023-05-25T02:25:36;9.50;99.90
57390;DHT22;43217;52.694;6.214;2023-05-25T02:28:02;9.50;99.90
57390;DHT22;43217;52.694;6.214;2023-05-25T02:30:28;9.50;99.90
57390;DHT22;43217;52.694;6.214;2023-05-25T02:32:54;9.50;99.90
57390;DHT22;43217;52.694;6.214;2023-05-25T02:35:21;9.50;99.90
57390;DHT22;43217;52.694;6.214;2023-05-25T02:37:47;9.50;99.90
57390;DHT22;43217;52.694;6.214;2023-05-25T02:40:13;9.50;99.90
57390;DHT22;43217;52.694;6.214;2023-05-25T02:42:39;9.50;99.90
57390;DHT22;43217;52.694;6.214;2023-05-25T02:45:07;9.50;99.90
57390;DHT22;43217;52.694;6.214;2023-05-25T02:47:35;9.50;99.90
57390;DHT22;43217;52.694;6.214;2023-05-25T02:50:01;9.50;99.90
57390;DHT22;43217;52.694;6.214;2023-05-25T02:52:26;9.50;99.90
57390;DHT22;43217;52.694;6.214;2023-05-25T02:54:52;9.40;99.90
57390;DHT22;43217;52.694;6.214;2023-05-25T02:57:18;9.40;99.90
57390;DHT22;43217;52.694;6.214;2023-05-25T02:59:43;9.40;99.90
57390;DHT22;43217;52.694;6.214;2023-05-25T03:02:09;9.40;99.90
57390;DHT22;43217;52.694;6.214;2023-05-25T03:04:35;9.40;99.90
57390;DHT22;43217;52.694;6.214;2023-05-25T03:07:02;9.30;99.90
57390;DHT22;43217;52.694;6.214;2023-05-25T03:09:28;9.30;99.90
57390;DHT22;43217;52.694;6.214;2023-05-25T03:11:53;9.30;99.90
57390;DHT22;43217;52.694;6.214;2023-05-25T03:14:19;9.30;99.90
57390;DHT22;43217;52.694;6.214;2023-05-25T03:16:44;9.30;99.90
57390;DHT22;43217;52.694;6.214;2023-05-25T03:19:10;9.30;99.90
57390;DHT22;43217;52.694;6.214;2023-05-25T03:21:37;9.30;99.90
57390;DHT22;43217;52.694;6.214;2023-05-25T03:24:02;9.30;99.90
57390;DHT22;43217;52.694;6.214;2023-05-25T03:26:28;9.30;99.90
57390;DHT22;43217;52.694;6.214;2023-05-25T03:28:55;9.30;99.90
57390;DHT22;43217;52.694;6.214;2023-05-25T03:31:21;9.30;99.90
57390;DHT22;43217;52.694;6.214;2023-05-25T03:33:47;9.30;99.90
57390;DHT22;43217;52.694;6.214;2023-05-25T03:36:13;9.20;99.90
57390;DHT22;43217;52.694;6.214;2023-05-25T03:38:42;9.20;99.90
57390;DHT22;43217;52.694;6.214;2023-05-25T03:41:08;9.20;99.90
57390;DHT22;43217;52.694;6.214;2023-05-25T03:43:33;9.10;99.90
57390;DHT22;43217;52.694;6.214;2023-05-25T03:45:59;9.10;99.90
57390;DHT22;43217;52.694;6.214;2023-05-25T03:48:25;9.10;99.90
57390;DHT22;43217;52.694;6.214;2023-05-25T03:50:50;9.10;99.90
57390;DHT22;43217;52.694;6.214;2023-05-25T03:53:16;9.10;99.90
57390;DHT22;43217;52.694;6.214;2023-05-25T03:55:42;9.10;99.90
57390;DHT22;43217;52.694;6.214;2023-05-25T03:58:08;9.10;99.90
57390;DHT22;43217;52.694;6.214;2023-05-25T04:00:35;9.10;99.90
57390;DHT22;43217;52.694;6.214;2023-05-25T04:03:01;9.10;99.90
57390;DHT22;43217;52.694;6.214;2023-05-25T04:05:26;9.10;99.90
57390;DHT22;43217;52.694;6.214;2023-05-25T04:07:52;9.10;99.90
57390;DHT22;43217;52.694;6.214;2023-05-25T04:10:17;9.10;99.90
57390;DHT22;43217;52.694;6.214;2023-05-25T04:12:43;9.10;99.90
57390;DHT22;43217;52.694;6.214;2023-05-25T04:15:09;9.10;99.90
57390;DHT22;43217;52.694;6.214;2023-05-25T04:17:36;9.20;99.90
57390;DHT22;43217;52.694;6.214;2023-05-25T04:20:02;9.30;99.90
57390;DHT22;43217;52.694;6.214;2023-05-25T04:22:28;9.30;99.90
57390;DHT22;43217;52.694;6.214;2023-05-25T04:24:57;9.40;99.90
57390;DHT22;43217;52.694;6.214;2023-05-25T04:27:22;9.50;99.90
57390;DHT22;43217;52.694;6.214;2023-05-25T04:29:48;9.70;99.90
57390;DHT22;43217;52.694;6.214;2023-05-25T04:32:15;10.00;99.90
57390;DHT22;43217;52.694;6.214;2023-05-25T04:34:43;10.30;99.90
57390;DHT22;43217;52.694;6.214;2023-05-25T04:37:09;10.70;99.90
57390;DHT22;43217;52.694;6.214;2023-05-25T04:39:35;10.90;99.90
57390;DHT22;43217;52.694;6.214;2023-05-25T04:42:00;11.00;99.90
57390;DHT22;43217;52.694;6.214;2023-05-25T04:44:29;11.00;99.90
57390;DHT22;43217;52.694;6.214;2023-05-25T04:46:55;11.00;99.90
57390;DHT22;43217;52.694;6.214;2023-05-25T04:49:21;11.00;99.90
57390;DHT22;43217;52.694;6.214;2023-05-25T04:51:46;11.10;99.90
57390;DHT22;43217;52.694;6.214;2023-05-25T04:54:12;11.10;99.90
57390;DHT22;43217;52.694;6.214;2023-05-25T04:56:38;11.00;99.90
57390;DHT22;43217;52.694;6.214;2023-05-25T04:59:03;11.10;99.90
57390;DHT22;43217;52.694;6.214;2023-05-25T05:01:29;11.20;99.90
57390;DHT22;43217;52.694;6.214;2023-05-25T05:03:55;11.20;99.90
57390;DHT22;43217;52.694;6.214;2023-05-25T05:06:21;11.30;99.90
57390;DHT22;43217;52.694;6.214;2023-05-25T05:08:47;11.30;99.90
57390;DHT22;43217;52.694;6.214;2023-05-25T05:11:12;11.30;99.90
57390;DHT22;43217;52.694;6.214;2023-05-25T05:13:38;11.20;99.90
57390;DHT22;43217;52.694;6.214;2023-05-25T05:16:04;11.30;99.90
57390;DHT22;43217;52.694;6.214;2023-05-25T05:18:30;11.40;99.90
57390;DHT22;43217;52.694;6.214;2023-05-25T05:20:56;11.50;99.90
57390;DHT22;43217;52.694;6.214;2023-05-25T05:23:21;11.60;99.90
57390;DHT22;43217;52.694;6.214;2023-05-25T05:25:47;11.70;99.90
57390;DHT22;43217;52.694;6.214;2023-05-25T05:28:13;11.70;99.90
57390;DHT22;43217;52.694;6.214;2023-05-25T05:30:38;11.80;99.90
57390;DHT22;43217;52.694;6.214;2023-05-25T05:33:04;11.80;99.90
57390;DHT22;43217;52.694;6.214;2023-05-25T05:35:30;11.90;99.90
57390;DHT22;43217;52.694;6.214;2023-05-25T05:37:56;12.00;99.90
57390;DHT22;43217;52.694;6.214;2023-05-25T05:40:21;12.10;99.90
57390;DHT22;43217;52.694;6.214;2023-05-25T05:42:47;12.20;99.90
57390;DHT22;43217;52.694;6.214;2023-05-25T05:45:12;12.30;99.90
57390;DHT22;43217;52.694;6.214;2023-05-25T05:47:38;12.40;99.90
57390;DHT22;43217;52.694;6.214;2023-05-25T05:50:04;12.50;99.90
57390;DHT22;43217;52.694;6.214;2023-05-25T05:52:30;12.60;99.90
57390;DHT22;43217;52.694;6.214;2023-05-25T05:54:56;12.60;99.90
57390;DHT22;43217;52.694;6.214;2023-05-25T05:57:22;12.60;99.90
57390;DHT22;43217;52.694;6.214;2023-05-25T05:59:47;12.70;99.90
57390;DHT22;43217;52.694;6.214;2023-05-25T06:02:13;12.70;99.90
57390;DHT22;43217;52.694;6.214;2023-05-25T06:04:39;12.70;99.90
57390;DHT22;43217;52.694;6.214;2023-05-25T06:07:05;12.80;99.90
57390;DHT22;43217;52.694;6.214;2023-05-25T06:09:31;12.90;99.90
57390;DHT22;43217;52.694;6.214;2023-05-25T06:11:56;13.00;99.90
57390;DHT22;43217;52.694;6.214;2023-05-25T06:14:22;13.00;99.90
57390;DHT22;43217;52.694;6.214;2023-05-25T06:16:48;13.10;99.90
57390;DHT22;43217;52.694;6.214;2023-05-25T06:19:13;13.20;99.90
57390;DHT22;43217;52.694;6.214;2023-05-25T06:21:39;13.30;99.90
57390;DHT22;43217;52.694;6.214;2023-05-25T06:24:05;13.40;99.90
57390;DHT22;43217;52.694;6.214;2023-05-25T06:26:31;13.50;99.90
57390;DHT22;43217;52.694;6.214;2023-05-25T06:28:57;13.70;99.90
57390;DHT22;43217;52.694;6.214;2023-05-25T06:31:22;13.80;99.90
57390;DHT22;43217;52.694;6.214;2023-05-25T06:33:49;13.90;99.90
57390;DHT22;43217;52.694;6.214;2023-05-25T06:36:15;14.10;99.90
57390;DHT22;43217;52.694;6.214;2023-05-25T06:38:41;14.80;99.90
57390;DHT22;43217;52.694;6.214;2023-05-25T06:41:06;15.60;99.90
57390;DHT22;43217;52.694;6.214;2023-05-25T06:43:34;16.40;99.90
57390;DHT22;43217;52.694;6.214;2023-05-25T06:45:59;17.30;99.90
57390;DHT22;43217;52.694;6.214;2023-05-25T06:48:25;17.90;99.90
57390;DHT22;43217;52.694;6.214;2023-05-25T06:50:51;18.10;99.90
57390;DHT22;43217;52.694;6.214;2023-05-25T06:53:16;18.10;99.90
57390;DHT22;43217;52.694;6.214;2023-05-25T06:55:42;18.10;99.90
57390;DHT22;43217;52.694;6.214;2023-05-25T06:58:08;18.20;99.90
57390;DHT22;43217;52.694;6.214;2023-05-25T07:00:34;18.20;99.90
57390;DHT22;43217;52.694;6.214;2023-05-25T07:02:59;18.30;99.90
57390;DHT22;43217;52.694;6.214;2023-05-25T07:05:25;18.50;99.90
57390;DHT22;43217;52.694;6.214;2023-05-25T07:07:51;18.60;99.90
57390;DHT22;43217;52.694;6.214;2023-05-25T07:10:17;18.20;99.90
57390;DHT22;43217;52.694;6.214;2023-05-25T07:12:42;17.90;99.90
57390;DHT22;43217;52.694;6.214;2023-05-25T07:15:09;17.60;99.90
57390;DHT22;43217;52.694;6.214;2023-05-25T07:17:35;17.80;99.90
57390;DHT22;43217;52.694;6.214;2023-05-25T07:20:01;18.30;99.90
57390;DHT22;43217;52.694;6.214;2023-05-25T07:22:27;18.50;99.90
57390;DHT22;43217;52.694;6.214;2023-05-25T07:24:53;18.80;99.90
57390;DHT22;43217;52.694;6.214;2023-05-25T07:27:18;18.90;99.90
57390;DHT22;43217;52.694;6.214;2023-05-25T07:29:44;19.00;99.90
57390;DHT22;43217;52.694;6.214;2023-05-25T07:32:10;18.60;99.90
57390;DHT22;43217;52.694;6.214;2023-05-25T07:34:35;18.20;99.90
57390;DHT22;43217;52.694;6.214;2023-05-25T07:37:01;17.70;99.90
57390;DHT22;43217;52.694;6.214;2023-05-25T07:39:27;17.50;99.90
57390;DHT22;43217;52.694;6.214;2023-05-25T07:41:53;17.50;99.90
57390;DHT22;43217;52.694;6.214;2023-05-25T07:44:19;17.60;99.90
57390;DHT22;43217;52.694;6.214;2023-05-25T07:46:45;17.60;99.90
57390;DHT22;43217;52.694;6.214;2023-05-25T07:49:10;17.80;99.90
57390;DHT22;43217;52.694;6.214;2023-05-25T07:51:44;17.80;99.90
57390;DHT22;43217;52.694;6.214;2023-05-25T07:54:10;18.20;99.90
57390;DHT22;43217;52.694;6.214;2023-05-25T07:56:37;18.40;99.90
57390;DHT22;43217;52.694;6.214;2023-05-25T07:59:02;18.20;99.90
57390;DHT22;43217;52.694;6.214;2023-05-25T08:01:28;18.10;99.90
57390;DHT22;43217;52.694;6.214;2023-05-25T08:03:54;17.80;99.90
57390;DHT22;43217;52.694;6.214;2023-05-25T08:06:19;17.50;99.90
57390;DHT22;43217;52.694;6.214;2023-05-25T08:08:45;17.30;99.90
57390;DHT22;43217;52.694;6.214;2023-05-25T08:11:11;17.10;99.90
57390;DHT22;43217;52.694;6.214;2023-05-25T08:13:37;16.90;99.90
57390;DHT22;43217;52.694;6.214;2023-05-25T08:16:03;16.70;99.90
57390;DHT22;43217;52.694;6.214;2023-05-25T08:18:29;16.50;99.90
57390;DHT22;43217;52.694;6.214;2023-05-25T08:20:56;16.40;99.90
57390;DHT22;43217;52.694;6.214;2023-05-25T08:23:22;16.50;99.90
57390;DHT22;43217;52.694;6.214;2023-05-25T08:25:47;16.50;99.90
57390;DHT22;43217;52.694;6.214;2023-05-25T08:28:13;16.60;99.90
57390;DHT22;43217;52.694;6.214;2023-05-25T08:30:39;16.70;99.90
57390;DHT22;43217;52.694;6.214;2023-05-25T08:33:05;16.70;99.90
57390;DHT22;43217;52.694;6.214;2023-05-25T08:35:31;16.60;99.90
57390;DHT22;43217;52.694;6.214;2023-05-25T08:37:57;16.50;99.90
57390;DHT22;43217;52.694;6.214;2023-05-25T08:40:26;16.40;99.90
57390;DHT22;43217;52.694;6.214;2023-05-25T08:42:54;16.30;99.90
57390;DHT22;43217;52.694;6.214;2023-05-25T08:45:26;16.20;99.90
57390;DHT22;43217;52.694;6.214;2023-05-25T08:47:53;16.30;99.90
57390;DHT22;43217;52.694;6.214;2023-05-25T08:50:24;16.30;99.90
57390;DHT22;43217;52.694;6.214;2023-05-25T08:52:52;16.40;99.90
57390;DHT22;43217;52.694;6.214;2023-05-25T08:55:21;16.40;99.90
57390;DHT22;43217;52.694;6.214;2023-05-25T08:57:54;16.40;99.90
57390;DHT22;43217;52.694;6.214;2023-05-25T09:00:32;16.50;99.90
57390;DHT22;43217;52.694;6.214;2023-05-25T09:03:15;16.40;99.90
57390;DHT22;43217;52.694;6.214;2023-05-25T09:05:42;16.60;99.90
57390;DHT22;43217;52.694;6.214;2023-05-25T09:08:08;16.50;99.90
57390;DHT22;43217;52.694;6.214;2023-05-25T09:10:37;16.50;99.90
57390;DHT22;43217;52.694;6.214;2023-05-25T09:13:03;16.50;99.90
57390;DHT22;43217;52.694;6.214;2023-05-25T09:15:29;16.40;99.90
57390;DHT22;43217;52.694;6.214;2023-05-25T09:17:55;16.40;99.90
57390;DHT22;43217;52.694;6.214;2023-05-25T09:20:22;16.40;99.90
57390;DHT22;43217;52.694;6.214;2023-05-25T09:22:48;16.40;99.90
57390;DHT22;43217;52.694;6.214;2023-05-25T09:25:18;16.50;99.90
57390;DHT22;43217;52.694;6.214;2023-05-25T09:27:47;16.60;99.90
57390;DHT22;43217;52.694;6.214;2023-05-25T09:30:13;16.60;99.90
57390;DHT22;43217;52.694;6.214;2023-05-25T09:32:40;16.60;99.90
57390;DHT22;43217;52.694;6.214;2023-05-25T09:35:13;16.60;99.90
57390;DHT22;43217;52.694;6.214;2023-05-25T09:37:40;16.60;99.90
57390;DHT22;43217;52.694;6.214;2023-05-25T09:40:06;16.50;99.90
57390;DHT22;43217;52.694;6.214;2023-05-25T09:42:33;16.50;99.90
57390;DHT22;43217;52.694;6.214;2023-05-25T09:44:59;16.50;99.90
57390;DHT22;43217;52.694;6.214;2023-05-25T09:47:26;16.40;99.90
57390;DHT22;43217;52.694;6.214;2023-05-25T09:49:53;16.40;99.90
57390;DHT22;43217;52.694;6.214;2023-05-25T09:52:19;16.30;99.90
57390;DHT22;43217;52.694;6.214;2023-05-25T09:54:47;16.30;99.90
57390;DHT22;43217;52.694;6.214;2023-05-25T09:57:22;16.30;99.90
57390;DHT22;43217;52.694;6.214;2023-05-25T09:59:48;16.30;99.90
57390;DHT22;43217;52.694;6.214;2023-05-25T10:02:14;16.40;99.90
57390;DHT22;43217;52.694;6.214;2023-05-25T10:04:40;16.40;99.90
57390;DHT22;43217;52.694;6.214;2023-05-25T10:07:06;16.50;99.90
57390;DHT22;43217;52.694;6.214;2023-05-25T10:09:40;16.60;99.90
57390;DHT22;43217;52.694;6.214;2023-05-25T10:12:06;16.70;99.90
57390;DHT22;43217;52.694;6.214;2023-05-25T10:14:34;16.80;99.90
57390;DHT22;43217;52.694;6.214;2023-05-25T10:17:02;16.80;99.90
57390;DHT22;43217;52.694;6.214;2023-05-25T10:19:43;16.80;99.90
57390;DHT22;43217;52.694;6.214;2023-05-25T10:24:53;17.00;99.90
57390;DHT22;43217;52.694;6.214;2023-05-25T10:27:24;17.10;99.90
57390;DHT22;43217;52.694;6.214;2023-05-25T10:29:51;17.10;99.90
57390;DHT22;43217;52.694;6.214;2023-05-25T10:32:17;17.00;99.90
57390;DHT22;43217;52.694;6.214;2023-05-25T10:34:44;16.90;99.90
57390;DHT22;43217;52.694;6.214;2023-05-25T10:37:11;16.90;99.90
57390;DHT22;43217;52.694;6.214;2023-05-25T10:39:40;17.00;99.90
57390;DHT22;43217;52.694;6.214;2023-05-25T10:42:06;17.20;99.90
57390;DHT22;43217;52.694;6.214;2023-05-25T10:44:32;17.40;99.90
57390;DHT22;43217;52.694;6.214;2023-05-25T10:46:59;17.90;99.90
57390;DHT22;43217;52.694;6.214;2023-05-25T10:49:31;18.20;98.60
57390;DHT22;43217;52.694;6.214;2023-05-25T10:52:01;18.20;97.90
57390;DHT22;43217;52.694;6.214;2023-05-25T10:54:33;18.30;96.70
57390;DHT22;43217;52.694;6.214;2023-05-25T10:57:19;18.30;96.10
57390;DHT22;43217;52.694;6.214;2023-05-25T10:59:50;18.60;94.30
57390;DHT22;43217;52.694;6.214;2023-05-25T11:02:18;18.80;95.00
57390;DHT22;43217;52.694;6.214;2023-05-25T11:04:48;18.80;93.60
57390;DHT22;43217;52.694;6.214;2023-05-25T11:07:15;18.70;92.30
57390;DHT22;43217;52.694;6.214;2023-05-25T11:09:43;18.60;91.50
57390;DHT22;43217;52.694;6.214;2023-05-25T11:12:20;18.50;91.80
57390;DHT22;43217;52.694;6.214;2023-05-25T11:15:13;18.50;91.80
57390;DHT22;43217;52.694;6.214;2023-05-25T11:17:57;18.40;90.20
57390;DHT22;43217;52.694;6.214;2023-05-25T11:20:26;18.30;90.80
57390;DHT22;43217;52.694;6.214;2023-05-25T11:22:53;18.10;90.70
57390;DHT22;43217;52.694;6.214;2023-05-25T11:25:38;18.20;91.00
57390;DHT22;43217;52.694;6.214;2023-05-25T11:28:08;18.40;90.90
57390;DHT22;43217;52.694;6.214;2023-05-25T11:30:37;18.60;87.30
57390;DHT22;43217;52.694;6.214;2023-05-25T11:33:03;18.50;89.20
57390;DHT22;43217;52.694;6.214;2023-05-25T11:35:30;18.60;88.30
57390;DHT22;43217;52.694;6.214;2023-05-25T11:38:04;18.70;87.70
57390;DHT22;43217;52.694;6.214;2023-05-25T11:40:30;18.60;86.70
57390;DHT22;43217;52.694;6.214;2023-05-25T11:43:00;18.60;86.20
57390;DHT22;43217;52.694;6.214;2023-05-25T11:45:30;18.60;84.50
57390;DHT22;43217;52.694;6.214;2023-05-25T11:47:57;18.70;84.40
57390;DHT22;43217;52.694;6.214;2023-05-25T11:50:23;18.90;83.60
57390;DHT22;43217;52.694;6.214;2023-05-25T11:52:49;19.10;82.20
57390;DHT22;43217;52.694;6.214;2023-05-25T11:55:15;19.30;81.30
57390;DHT22;43217;52.694;6.214;2023-05-25T11:57:40;19.20;81.00
57390;DHT22;43217;52.694;6.214;2023-05-25T12:00:08;19.00;80.10
57390;DHT22;43217;52.694;6.214;2023-05-25T12:02:37;19.00;81.10
57390;DHT22;43217;52.694;6.214;2023-05-25T12:05:04;19.10;80.90
57390;DHT22;43217;52.694;6.214;2023-05-25T12:07:31;19.10;79.70
57390;DHT22;43217;52.694;6.214;2023-05-25T12:10:04;18.90;79.50
57390;DHT22;43217;52.694;6.214;2023-05-25T12:12:40;19.00;77.70
57390;DHT22;43217;52.694;6.214;2023-05-25T12:15:07;18.90;77.90
57390;DHT22;43217;52.694;6.214;2023-05-25T12:17:34;18.90;77.80
57390;DHT22;43217;52.694;6.214;2023-05-25T12:19:59;18.90;79.20
57390;DHT22;43217;52.694;6.214;2023-05-25T12:22:26;18.90;78.60
57390;DHT22;43217;52.694;6.214;2023-05-25T12:24:51;18.80;78.80
57390;DHT22;43217;52.694;6.214;2023-05-25T12:27:19;18.80;78.20
57390;DHT22;43217;52.694;6.214;2023-05-25T12:29:47;18.80;77.90
57390;DHT22;43217;52.694;6.214;2023-05-25T12:32:13;18.70;77.20
57390;DHT22;43217;52.694;6.214;2023-05-25T12:34:39;18.60;77.00
57390;DHT22;43217;52.694;6.214;2023-05-25T12:37:19;18.60;77.90
57390;DHT22;43217;52.694;6.214;2023-05-25T12:39:46;18.70;78.60
57390;DHT22;43217;52.694;6.214;2023-05-25T12:42:15;18.80;77.20
57390;DHT22;43217;52.694;6.214;2023-05-25T12:44:42;18.90;76.20
57390;DHT22;43217;52.694;6.214;2023-05-25T12:47:18;18.90;75.30
57390;DHT22;43217;52.694;6.214;2023-05-25T12:49:46;18.90;75.80
57390;DHT22;43217;52.694;6.214;2023-05-25T12:52:51;18.80;75.30
57390;DHT22;43217;52.694;6.214;2023-05-25T12:55:29;18.80;74.90
57390;DHT22;43217;52.694;6.214;2023-05-25T12:57:57;18.80;75.80
57390;DHT22;43217;52.694;6.214;2023-05-25T13:00:39;18.70;75.90
57390;DHT22;43217;52.694;6.214;2023-05-25T13:03:07;18.80;76.60
57390;DHT22;43217;52.694;6.214;2023-05-25T13:05:34;18.90;76.70
57390;DHT22;43217;52.694;6.214;2023-05-25T13:08:02;18.90;75.20
57390;DHT22;43217;52.694;6.214;2023-05-25T13:10:29;18.90;74.70
57390;DHT22;43217;52.694;6.214;2023-05-25T13:12:55;18.90;75.00
57390;DHT22;43217;52.694;6.214;2023-05-25T13:15:23;18.80;73.30
57390;DHT22;43217;52.694;6.214;2023-05-25T13:17:51;18.60;73.20
57390;DHT22;43217;52.694;6.214;2023-05-25T13:20:19;18.50;72.90
57390;DHT22;43217;52.694;6.214;2023-05-25T13:22:46;18.30;73.00
57390;DHT22;43217;52.694;6.214;2023-05-25T13:25:13;18.10;73.60
57390;DHT22;43217;52.694;6.214;2023-05-25T13:27:49;18.10;74.50
57390;DHT22;43217;52.694;6.214;2023-05-25T13:30:16;18.10;75.10
57390;DHT22;43217;52.694;6.214;2023-05-25T13:32:42;18.10;74.40
57390;DHT22;43217;52.694;6.214;2023-05-25T13:35:08;18.00;74.00
57390;DHT22;43217;52.694;6.214;2023-05-25T13:37:37;18.00;74.50
57390;DHT22;43217;52.694;6.214;2023-05-25T13:40:03;18.10;75.10
57390;DHT22;43217;52.694;6.214;2023-05-25T13:42:29;18.20;73.90
57390;DHT22;43217;52.694;6.214;2023-05-25T13:44:55;18.20;73.10
57390;DHT22;43217;52.694;6.214;2023-05-25T13:47:21;18.20;75.00
57390;DHT22;43217;52.694;6.214;2023-05-25T13:49:47;18.20;76.30
57390;DHT22;43217;52.694;6.214;2023-05-25T13:52:12;18.20;76.30
57390;DHT22;43217;52.694;6.214;2023-05-25T13:54:38;18.10;76.70
57390;DHT22;43217;52.694;6.214;2023-05-25T13:57:03;18.10;76.00
57390;DHT22;43217;52.694;6.214;2023-05-25T13:59:31;18.00;76.90
57390;DHT22;43217;52.694;6.214;2023-05-25T14:01:57;18.00;77.40
57390;DHT22;43217;52.694;6.214;2023-05-25T14:04:23;18.00;78.40
57390;DHT22;43217;52.694;6.214;2023-05-25T14:06:48;17.90;77.50
57390;DHT22;43217;52.694;6.214;2023-05-25T14:09:14;17.80;78.10
57390;DHT22;43217;52.694;6.214;2023-05-25T14:11:40;17.80;77.90
57390;DHT22;43217;52.694;6.214;2023-05-25T14:14:06;17.80;77.40
57390;DHT22;43217;52.694;6.214;2023-05-25T14:16:36;17.80;77.70
57390;DHT22;43217;52.694;6.214;2023-05-25T14:19:02;17.70;76.80
57390;DHT22;43217;52.694;6.214;2023-05-25T14:21:28;17.80;77.20
57390;DHT22;43217;52.694;6.214;2023-05-25T14:23:55;17.80;78.00
57390;DHT22;43217;52.694;6.214;2023-05-25T14:26:20;17.80;77.50
57390;DHT22;43217;52.694;6.214;2023-05-25T14:28:47;17.90;77.30
57390;DHT22;43217;52.694;6.214;2023-05-25T14:31:12;17.90;77.20
57390;DHT22;43217;52.694;6.214;2023-05-25T14:33:38;17.80;77.60
57390;DHT22;43217;52.694;6.214;2023-05-25T14:36:04;17.90;79.00
57390;DHT22;43217;52.694;6.214;2023-05-25T14:38:30;18.00;78.60
57390;DHT22;43217;52.694;6.214;2023-05-25T14:40:57;18.00;77.70
57390;DHT22;43217;52.694;6.214;2023-05-25T14:43:23;18.00;76.60
57390;DHT22;43217;52.694;6.214;2023-05-25T14:45:49;17.90;76.00
57390;DHT22;43217;52.694;6.214;2023-05-25T14:48:14;17.80;76.80
57390;DHT22;43217;52.694;6.214;2023-05-25T14:50:42;17.70;76.40
57390;DHT22;43217;52.694;6.214;2023-05-25T14:53:08;17.70;77.00
57390;DHT22;43217;52.694;6.214;2023-05-25T14:55:34;17.60;77.00
57390;DHT22;43217;52.694;6.214;2023-05-25T14:57:59;17.60;77.80
57390;DHT22;43217;52.694;6.214;2023-05-25T15:00:25;17.70;78.10
57390;DHT22;43217;52.694;6.214;2023-05-25T15:02:51;17.70;77.80
57390;DHT22;43217;52.694;6.214;2023-05-25T15:05:16;17.70;76.30
57390;DHT22;43217;52.694;6.214;2023-05-25T15:07:42;17.70;76.80
57390;DHT22;43217;52.694;6.214;2023-05-25T15:10:08;17.70;76.90
57390;DHT22;43217;52.694;6.214;2023-05-25T15:12:33;17.70;76.60
57390;DHT22;43217;52.694;6.214;2023-05-25T15:14:59;17.70;77.30
57390;DHT22;43217;52.694;6.214;2023-05-25T15:17:24;17.70;77.40
57390;DHT22;43217;52.694;6.214;2023-05-25T15:19:50;17.70;77.60
57390;DHT22;43217;52.694;6.214;2023-05-25T15:22:16;17.80;77.60
57390;DHT22;43217;52.694;6.214;2023-05-25T15:24:41;17.80;77.90
57390;DHT22;43217;52.694;6.214;2023-05-25T15:27:07;17.80;76.60
57390;DHT22;43217;52.694;6.214;2023-05-25T15:29:36;17.70;77.10
57390;DHT22;43217;52.694;6.214;2023-05-25T15:32:02;17.60;76.50
57390;DHT22;43217;52.694;6.214;2023-05-25T15:34:27;17.60;76.60
57390;DHT22;43217;52.694;6.214;2023-05-25T15:36:53;17.50;76.80
57390;DHT22;43217;52.694;6.214;2023-05-25T15:39:18;17.50;76.50
57390;DHT22;43217;52.694;6.214;2023-05-25T15:41:44;17.40;77.50